sensor_id;sensor_type;location;lat;lon;timestamp;pressure;altitude;pressure_sealevel;temperature;humidity
71239;BME280;61342;51.442;7.370;2022-09-23T05:16:28;100090.25;;;14.15;58.08
71239;BME280;61342;51.442;7.370;2022-09-23T05:34:25;100115.69;;;13.39;59.99
71239;BME280;61342;51.442;7.370;2022-09-23T05:35:28;100115.69;;;13.39;60.15
71239;BME280;61342;51.442;7.370;2022-09-23T05:36:53;100100.44;;;13.26;60.11
71239;BME280;61342;51.442;7.370;2022-09-23T05:39:51;100129.53;;;13.28;60.34
71239;BME280;61342;51.442;7.370;2022-09-23T05:41:36;100135.63;;;13.24;60.54
71239;BME280;61342;51.442;7.370;2022-09-23T05:46:58;100129.75;;;13.17;61.00
71239;BME280;61342;51.442;7.370;2022-09-23T05:48:13;100109.09;;;13.13;61.21
71239;BME280;61342;51.442;7.370;2022-09-23T05:49:14;100102.41;;;13.18;61.30
71239;BME280;61342;51.442;7.370;2022-09-23T05:50:28;100103.00;;;13.29;61.19
71239;BME280;61342;51.442;7.370;2022-09-23T05:52:27;100123.34;;;13.63;60.92
71239;BME280;61342;51.442;7.370;2022-09-23T05:53:54;100109.81;;;13.71;60.56
71239;BME280;61342;51.442;7.370;2022-09-23T05:55:21;100111.38;;;13.84;60.01
71239;BME280;61342;51.442;7.370;2022-09-23T05:56:51;100119.72;;;14.01;60.02
71239;BME280;61342;51.442;7.370;2022-09-23T06:01:34;100114.06;;;14.08;59.65
71239;BME280;61342;51.442;7.370;2022-09-23T06:02:55;100097.13;;;13.99;59.54
71239;BME280;61342;51.442;7.370;2022-09-23T06:05:54;100117.38;;;13.99;59.76
71239;BME280;61342;51.442;7.370;2022-09-23T06:07:14;100119.72;;;14.01;59.49
71239;BME280;61342;51.442;7.370;2022-09-23T06:08:57;100105.94;;;13.81;59.81
71239;BME280;61342;51.442;7.370;2022-09-23T06:10:03;100126.84;;;13.87;60.24
71239;BME280;61342;51.442;7.370;2022-09-23T06:11:22;100102.72;;;13.72;60.26
71239;BME280;61342;51.442;7.370;2022-09-23T06:14:13;100101.81;;;13.64;60.43
71239;BME280;61342;51.442;7.370;2022-09-23T06:15:39;100101.59;;;13.62;60.49
71239;BME280;61342;51.442;7.370;2022-09-23T06:16:39;100105.59;;;13.59;60.76
71239;BME280;61342;51.442;7.370;2022-09-23T06:18:19;100113.47;;;13.58;60.96
71239;BME280;61342;51.442;7.370;2022-09-23T06:19:48;100125.81;;;13.59;60.51
71239;BME280;61342;51.442;7.370;2022-09-23T06:20:51;100106.25;;;13.52;60.87
71239;BME280;61342;51.442;7.370;2022-09-23T06:21:55;100097.25;;;13.42;61.21
71239;BME280;61342;51.442;7.370;2022-09-23T06:23:04;100115.38;;;13.56;61.38
71239;BME280;61342;51.442;7.370;2022-09-23T06:24:08;100109.47;;;13.48;61.08
71239;BME280;61342;51.442;7.370;2022-09-23T06:25:16;100088.69;;;13.37;61.50
71239;BME280;61342;51.442;7.370;2022-09-23T06:26:18;100108.25;;;13.44;61.46
71239;BME280;61342;51.442;7.370;2022-09-23T06:27:28;100099.44;;;13.36;61.75
71239;BME280;61342;51.442;7.370;2022-09-23T06:28:32;100101.88;;;13.32;61.69
71239;BME280;61342;51.442;7.370;2022-09-23T06:29:35;100104.25;;;13.34;61.49
71239;BME280;61342;51.442;7.370;2022-09-23T06:30:36;100107.03;;;13.39;61.88
71239;BME280;61342;51.442;7.370;2022-09-23T06:33:48;100113.13;;;13.36;61.92
71239;BME280;61342;51.442;7.370;2022-09-23T06:34:48;100118.91;;;13.36;61.83
71239;BME280;61342;51.442;7.370;2022-09-23T06:35:49;100125.44;;;13.36;61.88
71239;BME280;61342;51.442;7.370;2022-09-23T06:45:01;100128.47;;;13.95;61.53
71239;BME280;61342;51.442;7.370;2022-09-23T06:46:28;100121.50;;;14.17;61.02
71239;BME280;61342;51.442;7.370;2022-09-23T06:49:21;100099.00;;;14.36;60.29
71239;BME280;61342;51.442;7.370;2022-09-23T06:50:29;100119.09;;;14.54;60.19
71239;BME280;61342;51.442;7.370;2022-09-23T06:51:32;100100.88;;;14.46;59.70
71239;BME280;61342;51.442;7.370;2022-09-23T06:52:33;100110.75;;;14.50;60.19
71239;BME280;61342;51.442;7.370;2022-09-23T06:53:51;100110.41;;;14.54;59.87
71239;BME280;61342;51.442;7.370;2022-09-23T06:55:22;100118.19;;;14.59;59.67
71239;BME280;61342;51.442;7.370;2022-09-23T06:57:05;100107.28;;;14.52;59.38
71239;BME280;61342;51.442;7.370;2022-09-23T06:58:09;100114.00;;;14.47;59.41
71239;BME280;61342;51.442;7.370;2022-09-23T06:59:42;100121.97;;;14.54;59.91
71239;BME280;61342;51.442;7.370;2022-09-23T07:00:52;100107.56;;;14.41;59.78
71239;BME280;61342;51.442;7.370;2022-09-23T07:01:53;100117.22;;;14.43;59.79
71239;BME280;61342;51.442;7.370;2022-09-23T07:02:53;100105.56;;;14.36;59.86
71239;BME280;61342;51.442;7.370;2022-09-23T07:03:54;100129.78;;;14.46;59.97
71239;BME280;61342;51.442;7.370;2022-09-23T07:05:00;100107.88;;;14.38;59.96
71239;BME280;61342;51.442;7.370;2022-09-23T07:06:00;100099.78;;;14.36;59.91
71239;BME280;61342;51.442;7.370;2022-09-23T07:07:15;100101.66;;;14.34;60.16
71239;BME280;61342;51.442;7.370;2022-09-23T07:08:53;100109.81;;;14.35;59.89
71239;BME280;61342;51.442;7.370;2022-09-23T07:09:53;100107.81;;;14.30;60.32
71239;BME280;61342;51.442;7.370;2022-09-23T07:10:58;100094.03;;;14.23;60.03
71239;BME280;61342;51.442;7.370;2022-09-23T07:11:59;100100.69;;;14.31;60.45
71239;BME280;61342;51.442;7.370;2022-09-23T07:13:03;100101.59;;;14.26;60.19
71239;BME280;61342;51.442;7.370;2022-09-23T07:14:03;100111.69;;;14.33;60.26
71239;BME280;61342;51.442;7.370;2022-09-23T07:15:10;100110.34;;;14.34;60.37
71239;BME280;61342;51.442;7.370;2022-09-23T07:16:22;100096.56;;;14.27;59.97
71239;BME280;61342;51.442;7.370;2022-09-23T07:17:30;100117.22;;;14.43;60.11
71239;BME280;61342;51.442;7.370;2022-09-23T07:18:42;100106.91;;;14.35;59.95
71239;BME280;61342;51.442;7.370;2022-09-23T07:21:31;100122.69;;;14.47;59.93
71239;BME280;61342;51.442;7.370;2022-09-23T07:22:54;100118.41;;;14.48;59.78
71239;BME280;61342;51.442;7.370;2022-09-23T07:24:23;100110.53;;;14.48;59.61
71239;BME280;61342;51.442;7.370;2022-09-23T07:25:40;100113.63;;;14.50;59.87
71239;BME280;61342;51.442;7.370;2022-09-23T07:26:48;100108.09;;;14.52;59.53
71239;BME280;61342;51.442;7.370;2022-09-23T07:27:48;100107.72;;;14.56;59.52
71239;BME280;61342;51.442;7.370;2022-09-23T07:29:27;100108.19;;;14.60;59.42
71239;BME280;61342;51.442;7.370;2022-09-23T07:30:27;100121.25;;;14.74;59.14
71239;BME280;61342;51.442;7.370;2022-09-23T07:31:38;100110.09;;;14.78;59.32
71239;BME280;61342;51.442;7.370;2022-09-23T07:32:50;100110.75;;;14.84;59.41
71239;BME280;61342;51.442;7.370;2022-09-23T07:35:28;100113.91;;;15.26;58.59
71239;BME280;61342;51.442;7.370;2022-09-23T07:36:35;100108.03;;;15.39;58.38
71239;BME280;61342;51.442;7.370;2022-09-23T07:37:54;100109.19;;;15.64;57.87
71239;BME280;61342;51.442;7.370;2022-09-23T07:39:04;100119.97;;;15.84;57.30
71239;BME280;61342;51.442;7.370;2022-09-23T07:40:24;100105.09;;;15.87;56.55
71239;BME280;61342;51.442;7.370;2022-09-23T07:41:48;100122.47;;;16.15;56.37
71239;BME280;61342;51.442;7.370;2022-09-23T07:43:06;100112.97;;;16.14;55.90
71239;BME280;61342;51.442;7.370;2022-09-23T07:46:46;100122.16;;;16.26;55.71
71239;BME280;61342;51.442;7.370;2022-09-23T07:47:59;100121.41;;;16.33;55.41
71239;BME280;61342;51.442;7.370;2022-09-23T07:49:41;100111.47;;;16.21;55.59
71239;BME280;61342;51.442;7.370;2022-09-23T07:50:50;100112.69;;;16.25;55.87
71239;BME280;61342;51.442;7.370;2022-09-23T07:53:34;100118.91;;;16.29;55.33
71239;BME280;61342;51.442;7.370;2022-09-23T07:55:11;100114.44;;;16.28;55.74
71239;BME280;61342;51.442;7.370;2022-09-23T07:56:26;100124.50;;;16.27;55.27
71239;BME280;61342;51.442;7.370;2022-09-23T07:57:49;100108.00;;;16.22;55.37
71239;BME280;61342;51.442;7.370;2022-09-23T07:58:56;100106.66;;;16.23;55.31
71239;BME280;61342;51.442;7.370;2022-09-23T08:01:54;100123.38;;;16.38;55.38
71239;BME280;61342;51.442;7.370;2022-09-23T08:03:21;100101.66;;;16.24;55.23
71239;BME280;61342;51.442;7.370;2022-09-23T08:04:39;100104.97;;;16.28;55.85
71239;BME280;61342;51.442;7.370;2022-09-23T08:05:47;100116.59;;;16.35;55.55
71239;BME280;61342;51.442;7.370;2022-09-23T08:06:53;100110.97;;;16.30;55.41
71239;BME280;61342;51.442;7.370;2022-09-23T08:07:53;100119.72;;;16.37;55.46
71239;BME280;61342;51.442;7.370;2022-09-23T08:08:57;100132.31;;;16.47;55.60
71239;BME280;61342;51.442;7.370;2022-09-23T08:10:17;100129.63;;;16.49;55.25
71239;BME280;61342;51.442;7.370;2022-09-23T08:11:19;100120.88;;;16.42;55.30
71239;BME280;61342;51.442;7.370;2022-09-23T08:12:26;100118.59;;;16.48;55.25
71239;BME280;61342;51.442;7.370;2022-09-23T08:13:30;100110.09;;;16.50;55.28
71239;BME280;61342;51.442;7.370;2022-09-23T08:16:38;100107.22;;;16.57;55.58
71239;BME280;61342;51.442;7.370;2022-09-23T08:17:39;100116.19;;;16.74;55.50
71239;BME280;61342;51.442;7.370;2022-09-23T08:18:43;100120.28;;;16.86;55.17
71239;BME280;61342;51.442;7.370;2022-09-23T08:19:49;100118.34;;;16.96;54.65
71239;BME280;61342;51.442;7.370;2022-09-23T08:24:27;100113.25;;;17.54;53.79
71239;BME280;61342;51.442;7.370;2022-09-23T08:26:06;100116.50;;;17.65;53.78
71239;BME280;61342;51.442;7.370;2022-09-23T08:29:40;100117.28;;;17.81;53.20
71239;BME280;61342;51.442;7.370;2022-09-23T08:35:20;100111.25;;;17.86;53.34
71239;BME280;61342;51.442;7.370;2022-09-23T08:38:21;100123.69;;;17.87;53.20
71239;BME280;61342;51.442;7.370;2022-09-23T08:42:17;100120.41;;;17.83;53.36
71239;BME280;61342;51.442;7.370;2022-09-23T08:45:43;100126.59;;;17.79;53.56
71239;BME280;61342;51.442;7.370;2022-09-23T08:47:07;100119.59;;;17.75;53.77
71239;BME280;61342;51.442;7.370;2022-09-23T08:48:28;100109.13;;;17.72;53.59
71239;BME280;61342;51.442;7.370;2022-09-23T08:51:14;100113.59;;;17.73;53.75
71239;BME280;61342;51.442;7.370;2022-09-23T08:52:47;100123.09;;;17.81;53.89
71239;BME280;61342;51.442;7.370;2022-09-23T08:54:35;100123.09;;;17.81;54.15
71239;BME280;61342;51.442;7.370;2022-09-23T08:56:15;100106.03;;;17.77;54.26
71239;BME280;61342;51.442;7.370;2022-09-23T08:59:44;100118.38;;;18.07;53.81
71239;BME280;61342;51.442;7.370;2022-09-23T09:01:33;100124.00;;;18.28;53.63
71239;BME280;61342;51.442;7.370;2022-09-23T09:03:03;100099.69;;;18.40;52.60
71239;BME280;61342;51.442;7.370;2022-09-23T09:04:53;100088.31;;;18.66;52.22
71239;BME280;61342;51.442;7.370;2022-09-23T09:06:09;100108.38;;;18.94;52.21
71239;BME280;61342;51.442;7.370;2022-09-23T09:07:18;100095.50;;;19.05;51.59
71239;BME280;61342;51.442;7.370;2022-09-23T09:08:32;100107.22;;;19.21;51.80
71239;BME280;61342;51.442;7.370;2022-09-23T09:09:52;100108.56;;;19.28;51.23
71239;BME280;61342;51.442;7.370;2022-09-23T09:11:03;100087.03;;;19.23;50.82
71239;BME280;61342;51.442;7.370;2022-09-23T09:12:15;100101.66;;;19.40;51.00
71239;BME280;61342;51.442;7.370;2022-09-23T09:13:33;100106.91;;;19.42;51.26
71239;BME280;61342;51.442;7.370;2022-09-23T09:14:58;100102.06;;;19.37;50.40
71239;BME280;61342;51.442;7.370;2022-09-23T09:16:12;100112.72;;;19.42;51.12
71239;BME280;61342;51.442;7.370;2022-09-23T09:17:28;100101.13;;;19.34;50.95
71239;BME280;61342;51.442;7.370;2022-09-23T09:18:34;100086.78;;;19.29;50.80
71239;BME280;61342;51.442;7.370;2022-09-23T09:19:54;100112.38;;;19.38;51.39
71239;BME280;61342;51.442;7.370;2022-09-23T09:21:02;100097.44;;;19.34;51.27
71239;BME280;61342;51.442;7.370;2022-09-23T09:22:13;100097.09;;;19.30;50.95
71239;BME280;61342;51.442;7.370;2022-09-23T09:24:31;100097.44;;;19.34;50.97
71239;BME280;61342;51.442;7.370;2022-09-23T09:25:35;100103.63;;;19.38;50.98
71239;BME280;61342;51.442;7.370;2022-09-23T09:26:37;100100.53;;;19.36;51.47
71239;BME280;61342;51.442;7.370;2022-09-23T09:27:39;100099.16;;;19.37;51.61
71239;BME280;61342;51.442;7.370;2022-09-23T09:28:41;100101.47;;;19.38;51.39
71239;BME280;61342;51.442;7.370;2022-09-23T09:29:47;100095.72;;;19.31;51.44
71239;BME280;61342;51.442;7.370;2022-09-23T09:30:56;100103.44;;;19.36;51.83
71239;BME280;61342;51.442;7.370;2022-09-23T09:32:14;100094.75;;;19.28;51.73
71239;BME280;61342;51.442;7.370;2022-09-23T09:33:26;100092.25;;;19.25;51.09
71239;BME280;61342;51.442;7.370;2022-09-23T09:34:32;100106.91;;;19.42;51.11
71239;BME280;61342;51.442;7.370;2022-09-23T09:35:40;100109.38;;;19.45;51.39
71239;BME280;61342;51.442;7.370;2022-09-23T09:37:47;100100.41;;;19.51;50.90
71239;BME280;61342;51.442;7.370;2022-09-23T09:38:48;100114.25;;;19.67;50.98
71239;BME280;61342;51.442;7.370;2022-09-23T09:39:50;100093.44;;;19.70;50.46
71239;BME280;61342;51.442;7.370;2022-09-23T09:40:50;100105.13;;;19.87;50.39
71239;BME280;61342;51.442;7.370;2022-09-23T09:41:51;100099.31;;;20.04;49.83
71239;BME280;61342;51.442;7.370;2022-09-23T09:42:57;100088.78;;;20.09;49.98
71239;BME280;61342;51.442;7.370;2022-09-23T09:44:06;100089.22;;;20.22;49.95
71239;BME280;61342;51.442;7.370;2022-09-23T09:46:34;100096.94;;;20.44;48.82
71239;BME280;61342;51.442;7.370;2022-09-23T09:47:54;100091.78;;;20.52;48.62
71239;BME280;61342;51.442;7.370;2022-09-23T09:49:01;100095.03;;;20.56;48.46
71239;BME280;61342;51.442;7.370;2022-09-23T09:50:10;100100.28;;;20.57;48.39
71239;BME280;61342;51.442;7.370;2022-09-23T09:51:23;100095.03;;;20.56;48.47
71239;BME280;61342;51.442;7.370;2022-09-23T09:52:25;100092.13;;;20.56;48.36
71239;BME280;61342;51.442;7.370;2022-09-23T09:53:29;100093.34;;;20.53;48.12
71239;BME280;61342;51.442;7.370;2022-09-23T09:54:34;100092.41;;;20.50;48.39
71239;BME280;61342;51.442;7.370;2022-09-23T09:55:35;100085.41;;;20.46;48.27
71239;BME280;61342;51.442;7.370;2022-09-23T09:56:36;100084.06;;;20.47;47.91
71239;BME280;61342;51.442;7.370;2022-09-23T09:57:41;100085.59;;;20.48;48.40
71239;BME280;61342;51.442;7.370;2022-09-23T09:58:45;100087.59;;;20.45;48.22
71239;BME280;61342;51.442;7.370;2022-09-23T09:59:46;100090.31;;;20.43;47.88
71239;BME280;61342;51.442;7.370;2022-09-23T10:00:47;100084.94;;;20.40;47.56
71239;BME280;61342;51.442;7.370;2022-09-23T10:02:18;100085.78;;;20.33;47.54
71239;BME280;61342;51.442;7.370;2022-09-23T10:03:36;100086.56;;;20.33;48.01
71239;BME280;61342;51.442;7.370;2022-09-23T10:04:38;100085.78;;;20.33;47.41
71239;BME280;61342;51.442;7.370;2022-09-23T10:07:03;100076.66;;;20.29;48.05
71239;BME280;61342;51.442;7.370;2022-09-23T10:09:35;100088.13;;;20.34;48.06
71239;BME280;61342;51.442;7.370;2022-09-23T10:10:35;100084.75;;;20.38;47.57
71239;BME280;61342;51.442;7.370;2022-09-23T10:11:37;100084.47;;;20.43;47.81
71239;BME280;61342;51.442;7.370;2022-09-23T10:12:45;100091.44;;;20.48;47.80
71239;BME280;61342;51.442;7.370;2022-09-23T10:14:59;100081.81;;;20.72;47.51
71239;BME280;61342;51.442;7.370;2022-09-23T10:16:01;100079.00;;;20.90;47.29
71239;BME280;61342;51.442;7.370;2022-09-23T10:17:04;100084.97;;;21.09;46.39
71239;BME280;61342;51.442;7.370;2022-09-23T10:18:17;100074.59;;;21.25;46.56
71239;BME280;61342;51.442;7.370;2022-09-23T10:19:28;100073.91;;;21.43;45.65
71239;BME280;61342;51.442;7.370;2022-09-23T10:20:33;100069.38;;;21.59;45.56
71239;BME280;61342;51.442;7.370;2022-09-23T10:21:37;100080.34;;;21.78;45.62
71239;BME280;61342;51.442;7.370;2022-09-23T10:22:39;100082.84;;;21.91;45.35
71239;BME280;61342;51.442;7.370;2022-09-23T10:23:48;100080.56;;;21.99;45.05
71239;BME280;61342;51.442;7.370;2022-09-23T10:24:52;100071.47;;;22.04;44.43
71239;BME280;61342;51.442;7.370;2022-09-23T10:25:56;100075.97;;;22.14;44.12
71239;BME280;61342;51.442;7.370;2022-09-23T10:27:02;100077.47;;;22.15;44.05
71239;BME280;61342;51.442;7.370;2022-09-23T10:28:29;100075.03;;;22.21;44.17
71239;BME280;61342;51.442;7.370;2022-09-23T10:29:52;100071.69;;;22.25;44.05
71239;BME280;61342;51.442;7.370;2022-09-23T10:31:20;100081.06;;;22.23;44.02
71239;BME280;61342;51.442;7.370;2022-09-23T10:32:43;100082.44;;;22.22;43.99
71239;BME280;61342;51.442;7.370;2022-09-23T10:33:49;100077.97;;;22.21;43.72
71239;BME280;61342;51.442;7.370;2022-09-23T10:34:53;100075.03;;;22.21;43.33
71239;BME280;61342;51.442;7.370;2022-09-23T10:35:55;100070.41;;;22.18;44.07
71239;BME280;61342;51.442;7.370;2022-09-23T10:37:14;100068.53;;;22.13;44.16
71239;BME280;61342;51.442;7.370;2022-09-23T10:38:16;100065.44;;;22.11;43.54
71239;BME280;61342;51.442;7.370;2022-09-23T10:39:16;100074.22;;;22.11;43.80
71239;BME280;61342;51.442;7.370;2022-09-23T10:40:55;100062.81;;;22.06;43.97
71239;BME280;61342;51.442;7.370;2022-09-23T10:42:23;100065.63;;;22.04;43.33
71239;BME280;61342;51.442;7.370;2022-09-23T10:44:15;100066.50;;;21.97;43.72
71239;BME280;61342;51.442;7.370;2022-09-23T10:45:38;100065.00;;;22.05;43.87
71239;BME280;61342;51.442;7.370;2022-09-23T10:47:11;100059.91;;;22.06;43.33
71239;BME280;61342;51.442;7.370;2022-09-23T10:48:27;100063.00;;;22.17;43.53
71239;BME280;61342;51.442;7.370;2022-09-23T10:49:50;100068.44;;;22.30;42.79
71239;BME280;61342;51.442;7.370;2022-09-23T10:50:52;100057.03;;;22.44;42.79
71239;BME280;61342;51.442;7.370;2022-09-23T10:53:57;100054.69;;;22.80;41.97
71239;BME280;61342;51.442;7.370;2022-09-23T10:55:25;100057.56;;;23.08;42.19
71239;BME280;61342;51.442;7.370;2022-09-23T10:56:59;100059.31;;;23.32;41.27
71239;BME280;61342;51.442;7.370;2022-09-23T11:04:05;100044.44;;;23.79;40.67
71239;BME280;61342;51.442;7.370;2022-09-23T11:05:37;100044.16;;;23.75;40.61
71239;BME280;61342;51.442;7.370;2022-09-23T11:08:26;100033.19;;;23.76;40.01
71239;BME280;61342;51.442;7.370;2022-09-23T11:09:32;100036.25;;;23.78;40.44
71239;BME280;61342;51.442;7.370;2022-09-23T11:12:11;100028.75;;;23.65;40.10
71239;BME280;61342;51.442;7.370;2022-09-23T11:14:42;100038.50;;;23.58;40.85
71239;BME280;61342;51.442;7.370;2022-09-23T11:23:55;100029.34;;;23.64;39.53
71239;BME280;61342;51.442;7.370;2022-09-23T11:26:25;100020.09;;;23.88;38.99
71239;BME280;61342;51.442;7.370;2022-09-23T11:27:36;100020.59;;;24.05;38.75
71239;BME280;61342;51.442;7.370;2022-09-23T11:30:06;100017.16;;;24.30;38.73
71239;BME280;61342;51.442;7.370;2022-09-23T11:31:26;100016.16;;;24.37;38.61
71239;BME280;61342;51.442;7.370;2022-09-23T11:35:49;100009.94;;;24.74;38.49
71239;BME280;61342;51.442;7.370;2022-09-23T11:37:06;100003.81;;;24.82;38.46
71239;BME280;61342;51.442;7.370;2022-09-23T11:38:16;100008.44;;;24.96;38.60
71239;BME280;61342;51.442;7.370;2022-09-23T11:39:28;100011.34;;;25.05;38.35
71239;BME280;61342;51.442;7.370;2022-09-23T11:40:31;100020.03;;;25.15;38.15
71239;BME280;61342;51.442;7.370;2022-09-23T11:41:37;100007.25;;;25.22;37.79
71239;BME280;61342;51.442;7.370;2022-09-23T11:44:16;100012.63;;;25.37;37.61
71239;BME280;61342;51.442;7.370;2022-09-23T11:45:26;100009.31;;;25.42;37.39
71239;BME280;61342;51.442;7.370;2022-09-23T11:46:33;99997.16;;;25.48;37.04
71239;BME280;61342;51.442;7.370;2022-09-23T11:47:42;99990.63;;;25.49;36.61
71239;BME280;61342;51.442;7.370;2022-09-23T11:48:50;99988.81;;;25.56;36.69
71239;BME280;61342;51.442;7.370;2022-09-23T11:50:01;99988.53;;;25.63;35.99
71239;BME280;61342;51.442;7.370;2022-09-23T11:51:29;100000.50;;;25.76;36.22
71239;BME280;61342;51.442;7.370;2022-09-23T11:52:41;99997.25;;;25.95;35.79
71239;BME280;61342;51.442;7.370;2022-09-23T11:54:01;99991.03;;;26.14;35.92
71239;BME280;61342;51.442;7.370;2022-09-23T11:55:17;99990.75;;;26.33;34.90
71239;BME280;61342;51.442;7.370;2022-09-23T11:56:27;99992.03;;;26.55;35.47
71239;BME280;61342;51.442;7.370;2022-09-23T12:00:30;99967.13;;;26.82;34.51
71239;BME280;61342;51.442;7.370;2022-09-23T12:01:47;99969.09;;;27.03;34.40
71239;BME280;61342;51.442;7.370;2022-09-23T12:03:13;99985.88;;;27.25;33.88
71239;BME280;61342;51.442;7.370;2022-09-23T12:04:54;99978.78;;;27.30;33.67
71239;BME280;61342;51.442;7.370;2022-09-23T12:06:05;99973.19;;;27.36;33.63
71239;BME280;61342;51.442;7.370;2022-09-23T12:07:21;99979.31;;;27.40;33.14
71239;BME280;61342;51.442;7.370;2022-09-23T12:08:36;99976.47;;;27.42;32.66
71239;BME280;61342;51.442;7.370;2022-09-23T12:09:50;99984.47;;;27.53;33.12
71239;BME280;61342;51.442;7.370;2022-09-23T12:12:44;99955.91;;;27.44;32.41
71239;BME280;61342;51.442;7.370;2022-09-23T12:14:45;99979.47;;;27.55;32.36
71239;BME280;61342;51.442;7.370;2022-09-23T12:15:55;99973.56;;;27.55;32.48
71239;BME280;61342;51.442;7.370;2022-09-23T12:19:01;99982.03;;;27.49;32.76
71239;BME280;61342;51.442;7.370;2022-09-23T12:24:26;99973.63;;;27.44;32.52
71239;BME280;61342;51.442;7.370;2022-09-23T12:26:55;99964.53;;;27.40;32.59
71239;BME280;61342;51.442;7.370;2022-09-23T12:28:14;99961.28;;;27.34;31.82
71239;BME280;61342;51.442;7.370;2022-09-23T12:29:17;99958.84;;;27.31;32.01
71239;BME280;61342;51.442;7.370;2022-09-23T12:30:25;99969.47;;;27.22;32.55
71239;BME280;61342;51.442;7.370;2022-09-23T12:31:26;99962.88;;;27.10;32.39
71239;BME280;61342;51.442;7.370;2022-09-23T12:32:31;99969.19;;;27.05;32.35
71239;BME280;61342;51.442;7.370;2022-09-23T12:33:33;99969.91;;;26.92;32.23
71239;BME280;61342;51.442;7.370;2022-09-23T12:34:45;99961.00;;;26.78;32.17
71239;BME280;61342;51.442;7.370;2022-09-23T12:37:40;99954.53;;;26.44;32.36
71239;BME280;61342;51.442;7.370;2022-09-23T12:39:15;99963.94;;;26.29;32.45
71239;BME280;61342;51.442;7.370;2022-09-23T12:40:39;99960.97;;;26.04;32.77
71239;BME280;61342;51.442;7.370;2022-09-23T12:42:01;99958.28;;;25.97;33.42
71239;BME280;61342;51.442;7.370;2022-09-23T12:49:24;99947.59;;;25.33;33.45
71239;BME280;61342;51.442;7.370;2022-09-23T12:52:55;99950.41;;;25.08;33.63
71239;BME280;61342;51.442;7.370;2022-09-23T12:54:26;99937.13;;;25.07;33.33
71239;BME280;61342;51.442;7.370;2022-09-23T12:57:55;99945.69;;;25.14;33.51
71239;BME280;61342;51.442;7.370;2022-09-23T13:02:23;99941.22;;;25.13;33.90
71239;BME280;61342;51.442;7.370;2022-09-23T13:03:25;99945.81;;;25.05;34.15
71239;BME280;61342;51.442;7.370;2022-09-23T13:08:45;99925.75;;;24.46;33.70
71239;BME280;61342;51.442;7.370;2022-09-23T13:11:44;99920.34;;;24.11;34.52
71239;BME280;61342;51.442;7.370;2022-09-23T13:14:42;99941.63;;;24.00;35.35
71239;BME280;61342;51.442;7.370;2022-09-23T13:20:36;99926.91;;;23.37;35.95
71239;BME280;61342;51.442;7.370;2022-09-23T13:23:43;99924.28;;;23.21;35.83
71239;BME280;61342;51.442;7.370;2022-09-23T13:25:32;99934.22;;;23.36;35.86
71239;BME280;61342;51.442;7.370;2022-09-23T13:26:53;99940.50;;;23.42;36.28
71239;BME280;61342;51.442;7.370;2022-09-23T13:28:02;99927.06;;;23.39;36.27
71239;BME280;61342;51.442;7.370;2022-09-23T13:29:30;99915.47;;;23.41;36.17
71239;BME280;61342;51.442;7.370;2022-09-23T13:31:12;99923.72;;;23.54;35.89
71239;BME280;61342;51.442;7.370;2022-09-23T13:32:23;99920.22;;;23.46;35.46
71239;BME280;61342;51.442;7.370;2022-09-23T13:33:47;99936.72;;;23.51;36.02
71239;BME280;61342;51.442;7.370;2022-09-23T13:35:02;99934.63;;;23.42;35.79
71239;BME280;61342;51.442;7.370;2022-09-23T13:36:10;99930.72;;;23.28;35.33
71239;BME280;61342;51.442;7.370;2022-09-23T13:37:20;99921.66;;;23.15;35.56
71239;BME280;61342;51.442;7.370;2022-09-23T13:38:26;99928.78;;;23.12;35.74
71239;BME280;61342;51.442;7.370;2022-09-23T13:39:34;99924.53;;;22.94;35.67
71239;BME280;61342;51.442;7.370;2022-09-23T13:40:44;99910.56;;;22.74;35.85
71239;BME280;61342;51.442;7.370;2022-09-23T13:41:49;99913.97;;;22.70;36.65
71239;BME280;61342;51.442;7.370;2022-09-23T13:43:06;99916.50;;;22.55;36.38
71239;BME280;61342;51.442;7.370;2022-09-23T13:44:15;99927.94;;;22.51;36.50
71239;BME280;61342;51.442;7.370;2022-09-23T13:45:42;99916.88;;;22.31;37.20
71239;BME280;61342;51.442;7.370;2022-09-23T13:46:48;99921.97;;;22.30;37.63
71239;BME280;61342;51.442;7.370;2022-09-23T13:47:53;99926.56;;;22.24;37.75
71239;BME280;61342;51.442;7.370;2022-09-23T13:51:03;99919.53;;;21.99;38.08
71239;BME280;61342;51.442;7.370;2022-09-23T13:52:35;99931.06;;;21.97;37.86
71239;BME280;61342;51.442;7.370;2022-09-23T13:53:48;99925.22;;;21.97;37.93
71239;BME280;61342;51.442;7.370;2022-09-23T13:56:27;99919.66;;;22.01;37.84
71239;BME280;61342;51.442;7.370;2022-09-23T13:57:32;99930.91;;;22.13;38.12
71239;BME280;61342;51.442;7.370;2022-09-23T13:58:47;99910.22;;;22.11;38.05
71239;BME280;61342;51.442;7.370;2022-09-23T14:00:18;99928.28;;;22.27;37.61
71239;BME280;61342;51.442;7.370;2022-09-23T14:01:42;99934.91;;;22.37;37.13
71239;BME280;61342;51.442;7.370;2022-09-23T14:02:43;99929.97;;;22.39;37.63
71239;BME280;61342;51.442;7.370;2022-09-23T14:12:58;99919.19;;;22.13;38.19
71239;BME280;61342;51.442;7.370;2022-09-23T14:13:39;99909.81;;;21.96;38.19
71239;BME280;61342;51.442;7.370;2022-09-23T14:14:50;99903.03;;;21.84;38.36
71239;BME280;61342;51.442;7.370;2022-09-23T14:16:31;99911.03;;;21.84;38.99
71239;BME280;61342;51.442;7.370;2022-09-23T14:17:45;99891.63;;;21.60;39.17
71239;BME280;61342;51.442;7.370;2022-09-23T14:18:48;99909.50;;;21.64;38.43
71239;BME280;61342;51.442;7.370;2022-09-23T14:19:50;99911.97;;;21.58;39.38
71239;BME280;61342;51.442;7.370;2022-09-23T14:20:50;99914.59;;;21.54;39.44
71239;BME280;61342;51.442;7.370;2022-09-23T14:21:55;99909.31;;;21.52;39.82
71239;BME280;61342;51.442;7.370;2022-09-23T14:23:13;99903.28;;;21.32;39.18
71239;BME280;61342;51.442;7.370;2022-09-23T14:25:16;99916.38;;;21.40;39.93